Santa Teresa, NM (88008)

4:37 PM MST on February 12, 2016 (GMT -0700)
MesoWest | | Change Station
CLOSE
Current Station
Personal Weather Station
Location: Santa Teresa, NM
Elevation: 4115 ft
Nearby Weather Stations

Elev 4115 ft 31.87 °N, 106.70 °W | Updated 59 minutes ago

Haze
Haze
72 °F
Feels Like 73 °F
N
3
Wind Variable Wind from SE
Gusts 6.0 mph

Today
High -- | Low -- °F
--% Chance of Precip.
Yesterday
High -- | Low -- °F
Precip. -- in
Pressure 30.13 in
Visibility 5.0 miles
Clouds Clear
Heat Index 73 °F
Dew Point 17 °F
Humidity 12%
Rainfall in
Snow Depth Not available.
6:51 AM 5:50 PM
Waxing Crescent, 24% visible
METAR KBIF 122258Z AUTO 11004KT 5SM HZ CLR 23/M13 A3022 RMK AO2 LTG DSNT S SLP203 T02251134 $
Pressure 30.13 in
Visibility 5.0 miles
Clouds Clear
Heat Index 73 °F
Dew Point 17 °F
Humidity 12%
Rainfall in
Snow Depth Not available.
6:51 AM 5:50 PM
Waxing Crescent, 24% visible
METAR KBIF 122258Z AUTO 11004KT 5SM HZ CLR 23/M13 A3022 RMK AO2 LTG DSNT S SLP203 T02251134 $

10-Day Weather Forecast

Almanac

Astronomy

Feb. 12, 2016 Rise Set
Actual Time
Civil Twilight
Nautical Twilight
Astronomical Twilight
Moon
Length of Visible Light
Length of Day
Tomorrow will be .
, % of the Moon is Illuminated

Today's Extremes

State Highs State Lows

Community

WunderPhotos

Upload Photos

1,892,437 photos uploaded!

WunderBlog® & News

Nearby

Air Quality

  Air Quality AQ Index Pollutant
Not available.

Snow Depth

Station Depth Elevation

Earthquake Activity

City Distance Mag. Time & Date
Minimum magnitude displayed is 2.5.

Coastal Water Temperatures

Place Temperature

Stations

Nearby Weather Stations

Station Location Temp. Windchill Dew Point Humidity Wind Precip. Elev Updated Type
                   

Watches & Warnings

There are currently no watches in effect.